Time;durP1;ratioP1;P1;durP2;ratioP2;P2;SDS_P1;SDS_P2;PMS_P1;PMS_P2;Temp;Humidity;BMP_temperature;BMP_pressure;BME280_temperature;BME280_humidity;BME280_pressure;Samples;Min_cycle;Max_cycle;Signal;HPM_P1;HPM_P2
2024/02/09 00:00:12;;;;;;;44.90;23.20;;;;;;;-0.14;87.09;99334.23;107037;1312;22678;-57
2024/02/09 00:02:42;;;;;;;42.40;22.40;;;;;;;-0.15;87.17;99333.20;107034;1308;22248;-58
2024/02/09 00:05:25;;;;;;;44.20;22.60;;;;;;;-0.17;87.22;99325.06;107051;1308;22359;-57
2024/02/09 00:07:51;;;;;;;49.70;24.50;;;;;;;-0.19;87.15;99326.23;107040;1295;22328;-57
2024/02/09 00:10:18;;;;;;;45.70;23.80;;;;;;;-0.18;87.27;99327.60;103812;1316;22695;-57
2024/02/09 00:12:51;;;;;;;44.20;22.90;;;;;;;-0.17;87.19;99331.33;107056;1308;22386;-58
2024/02/09 00:15:20;;;;;;;44.10;22.90;;;;;;;-0.18;87.38;99330.48;106987;1309;22344;-56
2024/02/09 00:17:47;;;;;;;44.30;22.70;;;;;;;-0.17;87.43;99324.05;105943;1293;25474;-56
2024/02/09 00:20:12;;;;;;;;;;;;;;;-0.15;87.36;99327.29;103082;1301;26571;-56
2024/02/09 00:22:38;;;;;;;43.30;21.40;;;;;;;-0.15;87.36;99326.95;103063;1303;22577;-56
2024/02/09 00:25:08;;;;;;;41.50;21.20;;;;;;;-0.15;87.38;99327.62;103038;1308;24254;-58
2024/02/09 00:27:38;;;;;;;38.60;22.20;;;;;;;-0.16;87.48;99324.90;106882;1292;23139;-58
2024/02/09 00:30:07;;;;;;;42.20;22.70;;;;;;;-0.16;87.55;99326.77;106891;1311;22229;-58
2024/02/09 00:32:33;;;;;;;40.50;22.90;;;;;;;-0.15;87.33;99329.82;107053;1307;22268;-58
2024/02/09 00:34:59;;;;;;;46.90;22.60;;;;;;;-0.16;87.39;99331.00;105509;1293;24244;-59
2024/02/09 00:37:26;;;;;;;41.50;21.60;;;;;;;-0.14;87.32;99330.34;102990;1313;22634;-58
2024/02/09 00:39:52;;;;;;;41.70;22.50;;;;;;;-0.11;87.48;99335.27;102931;1301;22602;-56
2024/02/09 00:42:18;;;;;;;50.40;23.30;;;;;;;-0.10;87.62;99330.70;106989;1310;22395;-58
2024/02/09 00:44:44;;;;;;;37.80;20.70;;;;;;;-0.08;87.76;99325.13;107010;1301;22319;-61
2024/02/09 00:47:10;;;;;;;52.00;24.00;;;;;;;-0.05;87.79;99326.16;107045;1310;22256;-59
2024/02/09 00:49:37;;;;;;;53.40;24.90;;;;;;;-0.02;87.82;99326.02;107008;1297;22331;-58
2024/02/09 00:52:03;;;;;;;51.00;23.10;;;;;;;0.02;87.82;99328.55;107055;1310;23762;-61
2024/02/09 00:54:29;;;;;;;46.10;22.80;;;;;;;0.05;87.88;99329.06;107044;1309;22945;-58
2024/02/09 00:56:55;;;;;;;46.60;23.10;;;;;;;0.09;87.90;99323.84;107049;1304;22525;-58
2024/02/09 00:59:21;;;;;;;58.90;24.00;;;;;;;0.13;87.73;99321.15;107018;1293;22408;-58
2024/02/09 01:01:47;;;;;;;45.10;24.00;;;;;;;0.16;87.76;99322.02;107016;1311;22388;-57
2024/02/09 01:04:14;;;;;;;46.20;23.80;;;;;;;0.19;87.84;99326.43;104746;1308;25587;-57
2024/02/09 01:06:40;;;;;;;53.10;24.00;;;;;;;0.22;87.82;99324.76;103071;1310;22559;-57
2024/02/09 01:09:07;;;;;;;51.10;25.10;;;;;;;0.24;87.90;99321.20;103059;1308;22731;-57
2024/02/09 01:11:33;;;;;;;50.00;24.00;;;;;;;0.25;87.81;99318.66;103043;1310;22944;-56
2024/02/09 02:46:33;;;;;;;35.80;18.10;;;;;;;0.43;88.16;99249.58;103014;1308;23445;-56
2024/02/09 03:05:28;;;;;;;58.10;22.70;;;;;;;0.35;88.45;99245.66;102983;1297;25439;-56
2024/02/09 03:07:56;;;;;;;49.40;21.00;;;;;;;0.36;88.47;99253.29;107014;1308;22190;-59
2024/02/09 03:10:22;;;;;;;55.50;22.50;;;;;;;0.36;88.45;99257.87;107018;1307;22221;-57
2024/02/09 03:12:48;;;;;;;44.40;19.00;;;;;;;0.38;88.33;99252.28;107035;1294;22366;-58
2024/02/09 03:15:20;;;;;;;40.10;18.30;;;;;;;0.39;88.29;99247.02;103205;1297;24139;-55
2024/02/09 03:17:51;;;;;;;34.70;16.40;;;;;;;0.41;88.27;99246.70;102993;1313;24289;-55
2024/02/09 03:20:18;;;;;;;32.10;16.10;;;;;;;0.44;88.33;99242.13;102993;1310;22838;-55
2024/02/09 03:22:47;;;;;;;34.50;15.90;;;;;;;0.45;88.35;99246.88;107020;1293;22394;-56
2024/02/09 03:25:13;;;;;;;40.60;16.80;;;;;;;0.45;88.32;99244.33;104574;1309;22646;-56
2024/02/09 03:27:42;;;;;;;30.20;14.50;;;;;;;0.46;88.42;99238.91;107029;1309;22280;-57
2024/02/09 03:30:08;;;;;;;31.40;15.20;;;;;;;0.48;88.43;99238.75;107018;1309;22360;-58
2024/02/09 03:32:36;;;;;;;32.30;14.30;;;;;;;0.49;88.37;99240.79;107033;1297;22272;-58
2024/02/09 03:35:04;;;;;;;27.80;14.10;;;;;;;0.51;88.43;99236.04;106859;1306;22138;-56
2024/02/09 03:37:33;;;;;;;27.90;14.30;;;;;;;0.54;88.48;99240.26;104825;1310;22569;-58
2024/02/09 03:40:00;;;;;;;29.30;13.20;;;;;;;0.57;88.42;99244.00;103041;1293;23486;-56
2024/02/09 03:42:26;;;;;;;29.10;13.70;;;;;;;0.57;88.35;99241.62;106990;1297;22266;-58
2024/02/09 03:44:54;;;;;;;28.80;13.70;;;;;;;0.58;88.49;99234.84;107065;1313;22245;-58
2024/02/09 03:47:22;;;;;;;28.40;13.60;;;;;;;0.60;88.49;99228.91;107030;1308;23359;-60
2024/02/09 03:49:49;;;;;;;31.40;14.40;;;;;;;0.61;88.44;99231.11;103354;1310;22585;-55
2024/02/09 03:52:21;;;;;;;23.00;13.00;;;;;;;0.61;88.40;99233.48;102979;1293;22733;-56
2024/02/09 03:54:51;;;;;;;23.90;13.00;;;;;;;0.61;88.44;99241.97;102645;1309;23415;-60
2024/02/09 03:57:27;;;;;;;26.60;13.60;;;;;;;0.62;88.59;99242.14;103037;1310;22693;-57
2024/02/09 03:59:53;;;;;;;26.60;13.40;;;;;;;0.61;88.49;99234.52;102986;1309;24320;-58
2024/02/09 04:02:20;;;;;;;18.20;12.00;;;;;;;0.61;88.59;99228.91;102920;1295;22568;-56
2024/02/09 04:04:49;;;;;;;23.20;13.70;;;;;;;0.60;88.55;99219.58;103045;1313;22589;-56
2024/02/09 04:07:20;;;;;;;23.60;12.90;;;;;;;0.60;88.54;99213.31;104412;1303;22721;-57
2024/02/09 04:09:46;;;;;;;26.50;14.10;;;;;;;0.60;88.62;99209.91;103053;1313;22588;-56
2024/02/09 04:12:12;;;;;;;25.20;13.50;;;;;;;0.59;88.66;99206.19;103036;1295;23283;-59
2024/02/09 04:14:38;;;;;;;24.80;14.70;;;;;;;0.57;88.64;99205.51;102962;1310;22822;-58
2024/02/09 04:17:06;;;;;;;25.60;13.50;;;;;;;0.57;88.68;99206.52;102981;1304;25496;-55
2024/02/09 04:19:39;;;;;;;28.60;14.80;;;;;;;0.57;88.58;99196.02;103010;1311;22565;-56
2024/02/09 04:22:08;;;;;;;31.40;16.30;;;;;;;0.57;88.62;99193.64;104109;1310;22701;-57
2024/02/09 04:24:36;;;;;;;28.90;15.80;;;;;;;0.57;88.57;99195.16;106952;1294;22616;-60
2024/02/09 04:27:03;;;;;;;25.90;15.20;;;;;;;0.57;88.68;99194.48;107057;1310;22344;-58
2024/02/09 04:29:28;;;;;;;32.70;15.50;;;;;;;0.58;88.65;99191.60;107045;1304;22260;-58
2024/02/09 04:31:54;;;;;;;29.10;14.70;;;;;;;0.59;88.67;99191.10;105453;1310;22590;-57
2024/02/09 04:34:19;;;;;;;31.10;15.80;;;;;;;0.61;88.57;99188.05;103048;1297;25565;-57
2024/02/09 04:36:46;;;;;;;27.90;15.90;;;;;;;0.62;88.62;99187.71;103017;1309;24235;-56
2024/02/09 04:39:12;;;;;;;25.70;14.80;;;;;;;0.63;88.63;99187.37;103009;1311;22577;-58
2024/02/09 04:41:40;;;;;;;25.60;15.40;;;;;;;0.62;88.67;99183.98;103069;1300;22592;-57
2024/02/09 04:44:05;;;;;;;30.00;14.30;;;;;;;0.63;88.71;99188.72;106999;1297;23026;-59
2024/02/09 04:46:35;;;;;;;27.00;13.40;;;;;;;0.62;88.76;99184.15;107015;1309;23098;-59
2024/02/09 04:49:02;;;;;;;29.10;13.50;;;;;;;0.63;88.70;99173.64;107064;1310;22273;-58
2024/02/09 04:51:28;;;;;;;28.10;13.70;;;;;;;0.64;88.82;99166.52;103933;1311;22603;-56
2024/02/09 04:53:55;;;;;;;18.50;12.60;;;;;;;0.65;88.76;99164.31;102707;1297;402767;-58
2024/02/09 04:56:32;;;;;;;;;;;;;;;0.65;88.77;99156.34;102780;1310;22937;-58
2024/02/09 04:59:01;;;;;;;29.20;12.60;;;;;;;0.65;88.93;99156.51;103083;1301;22725;-56
2024/02/09 05:01:28;;;;;;;23.70;11.80;;;;;;;0.63;89.03;99148.55;105108;1310;22229;-56
2024/02/09 05:03:55;;;;;;;;;;;;;;;0.62;88.91;99144.64;107038;1296;22345;-58
2024/02/09 05:06:20;;;;;;;28.90;13.10;;;;;;;0.62;88.97;99138.70;107058;1310;23528;-58
2024/02/09 05:08:46;;;;;;;20.80;12.50;;;;;;;0.62;88.93;99136.50;104926;1310;24331;-58
2024/02/09 05:11:11;;;;;;;18.60;12.10;;;;;;;0.63;88.94;99146.84;103081;1309;22676;-56
2024/02/09 05:13:37;;;;;;;24.10;12.80;;;;;;;0.64;88.94;99148.88;103291;1295;23114;-57
2024/02/09 05:16:03;;;;;;;24.00;13.40;;;;;;;0.64;88.96;99147.19;103168;1303;22713;-56
2024/02/09 05:18:29;;;;;;;24.10;13.50;;;;;;;0.64;89.06;99149.55;103308;1301;22623;-58
2024/02/09 05:20:54;;;;;;;21.60;12.00;;;;;;;0.64;89.05;99153.46;103296;1292;24258;-59
2024/02/09 05:23:19;;;;;;;24.30;12.40;;;;;;;0.64;88.99;99156.17;103061;1309;26056;-59
2024/02/09 05:25:45;;;;;;;20.70;11.50;;;;;;;0.65;88.95;99159.56;103128;1298;23287;-57
2024/02/09 05:28:11;;;;;;;20.50;11.80;;;;;;;0.65;89.07;99158.89;103255;1309;24419;-56
2024/02/09 05:30:36;;;;;;;16.90;11.00;;;;;;;0.66;89.02;99157.02;103323;1311;22608;-55
2024/02/09 05:33:04;;;;;;;21.00;12.20;;;;;;;0.67;88.98;99153.96;103327;1310;23310;-58
2024/02/09 05:35:35;;;;;;;17.40;10.10;;;;;;;0.68;89.03;99153.96;103211;1300;26615;-57
2024/02/09 05:38:02;;;;;;;14.70;9.60;;;;;;;0.69;89.01;99149.55;103226;1308;25550;-59
2024/02/09 05:40:28;;;;;;;15.80;10.10;;;;;;;0.69;88.98;99145.15;106907;1308;22429;-59
2024/02/09 05:42:53;;;;;;;21.10;10.40;;;;;;;0.69;88.89;99142.77;106933;1313;22265;-57
2024/02/09 05:45:19;;;;;;;19.30;10.00;;;;;;;0.70;88.87;99138.53;106870;1294;22420;-56
2024/02/09 05:47:44;;;;;;;11.30;8.40;;;;;;;0.72;88.92;99134.64;106920;1313;22502;-56
2024/02/09 05:50:09;;;;;;;15.70;8.90;;;;;;;0.74;88.89;99132.60;106896;1311;22435;-58
2024/02/09 05:52:35;;;;;;;15.10;8.70;;;;;;;0.76;88.90;99131.75;106990;1308;22274;-57
2024/02/09 05:55:00;;;;;;;12.90;8.40;;;;;;;0.78;88.84;99126.84;106862;1296;22492;-57
2024/02/09 05:57:27;;;;;;;12.50;7.60;;;;;;;0.81;88.84;99119.88;106927;1310;22358;-59
2024/02/09 05:59:52;;;;;;;11.60;7.90;;;;;;;0.83;88.88;99117.16;106957;1310;22390;-58
2024/02/09 06:02:18;;;;;;;15.70;7.30;;;;;;;0.84;88.84;99112.24;105436;1316;22558;-58
2024/02/09 06:04:43;;;;;;;10.80;7.00;;;;;;;0.86;88.83;99108.67;103477;1292;24303;-56
2024/02/09 06:07:09;;;;;;;11.30;6.70;;;;;;;0.87;88.85;99112.08;102953;1308;22571;-56
2024/02/09 06:09:36;;;;;;;8.70;6.70;;;;;;;0.87;88.89;99112.75;103419;1308;25274;-54
2024/02/09 06:12:02;;;;;;;13.30;7.60;;;;;;;0.87;88.88;99111.57;106887;1310;22260;-56
2024/02/09 06:14:27;;;;;;;11.50;7.20;;;;;;;0.87;89.05;99110.72;105282;1311;25473;-59
2024/02/09 06:16:55;;;;;;;12.20;7.40;;;;;;;0.86;89.05;99108.85;103398;1294;22558;-53
2024/02/09 06:19:23;;;;;;;14.60;8.00;;;;;;;0.86;89.00;99104.61;103346;1307;23001;-57
2024/02/09 06:21:49;;;;;;;13.30;8.10;;;;;;;0.84;89.02;99107.16;103449;1311;26502;-55
2024/02/09 06:24:15;;;;;;;11.60;8.10;;;;;;;0.83;88.99;99107.33;103099;1315;22662;-54
2024/02/09 06:26:42;;;;;;;12.00;6.40;;;;;;;0.81;89.03;99106.48;103038;1310;24188;-56
2024/02/09 06:29:10;;;;;;;10.80;7.20;;;;;;;0.80;89.00;99107.33;103138;1308;24164;-55
2024/02/09 06:31:41;;;;;;;16.30;9.30;;;;;;;0.79;88.96;99106.14;102912;1316;22582;-56
2024/02/09 06:34:08;;;;;;;11.70;7.90;;;;;;;0.79;89.07;99103.26;102805;1310;22599;-55
2024/02/09 06:36:33;;;;;;;17.70;9.00;;;;;;;0.79;89.07;99100.21;102870;1297;25383;-56
2024/02/09 06:38:59;;;;;;;14.30;8.10;;;;;;;0.78;89.07;99096.98;103168;1316;24127;-56
2024/02/09 06:41:24;;;;;;;10.00;7.30;;;;;;;0.78;89.05;99093.42;103420;1316;22677;-55
2024/02/09 06:43:51;;;;;;;14.30;8.50;;;;;;;0.78;89.07;99092.58;103446;1316;24482;-56
2024/02/09 06:46:17;;;;;;;13.10;7.90;;;;;;;0.78;89.02;99093.59;103380;1294;22776;-55
2024/02/09 06:48:44;;;;;;;16.90;9.80;;;;;;;0.79;89.14;99095.29;103462;1316;22516;-55
2024/02/09 06:51:11;;;;;;;11.80;6.80;;;;;;;0.80;89.17;99090.54;103545;1316;22838;-55
2024/02/09 06:53:36;;;;;;;14.70;8.90;;;;;;;0.80;89.30;99091.22;103446;1308;24298;-56
2024/02/09 06:56:02;;;;;;;14.80;8.00;;;;;;;0.80;89.38;99092.91;103070;1313;23829;-56
2024/02/09 06:58:28;;;;;;;10.10;7.40;;;;;;;0.78;89.33;99098.85;103406;1313;22528;-57
2024/02/09 07:00:54;;;;;;;11.20;7.60;;;;;;;0.77;89.42;99098.17;103420;1313;23210;-55
2024/02/09 07:03:21;;;;;;;10.70;6.90;;;;;;;0.76;89.47;99096.48;103469;1310;25132;-56
2024/02/09 07:05:51;;;;;;;9.80;7.10;;;;;;;0.75;89.54;99103.27;106686;1295;22476;-56
2024/02/09 07:08:19;;;;;;;11.30;6.80;;;;;;;0.74;89.81;99107.50;106883;1310;22377;-56
2024/02/09 07:10:45;;;;;;;10.80;7.50;;;;;;;0.73;89.71;99105.13;107005;1299;22351;-56
2024/02/09 07:13:10;;;;;;;11.70;6.90;;;;;;;0.74;89.67;99105.13;106974;1295;22337;-55
2024/02/09 07:15:35;;;;;;;18.30;9.80;;;;;;;0.76;89.63;99107.33;106942;1313;22482;-57
2024/02/09 07:18:01;;;;;;;11.20;7.90;;;;;;;0.78;89.72;99103.43;106950;1297;23524;-55
2024/02/09 07:20:27;;;;;;;11.40;7.70;;;;;;;0.79;89.89;99104.10;106948;1314;22376;-56
2024/02/09 07:22:53;;;;;;;15.50;8.20;;;;;;;0.79;89.87;99100.04;106988;1311;22248;-56
2024/02/09 07:25:19;;;;;;;8.80;7.20;;;;;;;0.80;89.88;99094.61;106932;1316;23000;-55
2024/02/09 07:27:45;;;;;;;7.60;6.20;;;;;;;0.82;89.95;99093.41;106757;1298;22248;-57
2024/02/09 07:30:11;;;;;;;10.80;8.20;;;;;;;0.82;90.09;99092.06;106996;1316;23389;-55
2024/02/09 07:32:36;;;;;;;11.50;8.20;;;;;;;0.83;89.96;99093.92;106950;1310;22537;-56
2024/02/09 07:35:02;;;;;;;10.30;8.20;;;;;;;0.84;90.12;99089.17;106936;1316;23341;-56
2024/02/09 07:37:27;;;;;;;12.30;8.70;;;;;;;0.85;90.10;99084.08;106941;1297;23151;-57
2024/02/09 07:39:53;;;;;;;16.40;9.30;;;;;;;0.86;90.03;99081.88;106917;1310;22249;-57
2024/02/09 07:42:24;;;;;;;11.50;8.80;;;;;;;0.86;89.92;99078.66;106909;1312;22639;-58
2024/02/09 07:44:50;;;;;;;14.80;9.70;;;;;;;0.87;89.98;99076.11;106949;1316;22496;-54
2024/02/09 07:47:16;;;;;;;13.60;10.10;;;;;;;0.89;89.95;99076.79;106933;1297;22872;-56
2024/02/09 07:49:41;;;;;;;21.10;10.70;;;;;;;0.89;90.01;99071.52;106966;1310;22320;-55
2024/02/09 07:52:07;;;;;;;21.60;11.60;;;;;;;0.90;90.14;99069.32;106979;1310;23048;-55
2024/02/09 07:54:35;;;;;;;22.80;12.80;;;;;;;0.90;90.29;99066.60;107023;1311;22776;-57
2024/02/09 07:57:00;;;;;;;19.30;11.90;;;;;;;0.89;90.17;99063.89;106733;1301;22409;-55
2024/02/09 07:59:26;;;;;;;16.40;10.90;;;;;;;0.87;90.61;99060.84;106927;1310;22378;-55
2024/02/09 08:01:52;;;;;;;19.00;12.50;;;;;;;0.86;90.70;99060.34;106878;1315;22376;-58
2024/02/09 08:04:21;;;;;;;23.20;12.50;;;;;;;0.85;90.75;99054.40;106819;1316;22730;-59
2024/02/09 08:06:47;;;;;;;18.80;10.70;;;;;;;0.84;91.17;99052.02;106898;1311;22265;-54
2024/02/09 08:09:13;;;;;;;;;;;;;;;0.82;91.52;99052.04;106918;1294;22393;-57
2024/02/09 08:11:42;;;;;;;17.00;11.40;;;;;;;0.79;91.59;99049.33;106680;1310;22797;-55
2024/02/09 08:14:11;;;;;;;17.40;11.90;;;;;;;0.76;91.25;99044.08;106871;1310;22386;-56
2024/02/09 08:16:38;;;;;;;20.20;11.90;;;;;;;0.76;91.16;99037.80;106917;1311;22278;-54
2024/02/09 08:19:04;;;;;;;18.00;11.30;;;;;;;0.75;91.42;99038.98;106930;1298;22380;-55
2024/02/09 08:21:29;;;;;;;18.70;12.10;;;;;;;0.74;91.62;99034.41;106877;1313;23068;-54
2024/02/09 08:23:55;;;;;;;19.50;12.60;;;;;;;0.74;91.43;99029.49;106907;1316;22264;-55
2024/02/09 08:26:20;;;;;;;22.20;12.90;;;;;;;0.72;91.22;99027.80;106840;1311;23078;-51
2024/02/09 08:28:47;;;;;;;23.30;14.30;;;;;;;0.71;91.29;99027.80;106891;1297;22247;-57
2024/02/09 08:31:16;;;;;;;;;;;;;;;0.71;91.44;99026.61;106787;1310;22458;-55
2024/02/09 08:33:47;;;;;;;20.70;13.00;;;;;;;0.71;91.33;99027.29;106880;1311;22388;-51
2024/02/09 08:36:13;;;;;;;25.00;13.00;;;;;;;0.70;91.27;99022.71;106859;1313;22493;-55
2024/02/09 08:38:38;;;;;;;23.60;14.10;;;;;;;0.70;91.19;99024.58;106833;1301;23385;-56
2024/02/09 08:41:07;;;;;;;21.10;13.70;;;;;;;0.71;91.33;99024.07;106876;1317;22312;-57
2024/02/09 08:43:32;;;;;;;25.90;15.10;;;;;;;0.70;91.06;99024.74;106843;1310;22270;-55
2024/02/09 08:45:58;;;;;;;26.50;14.60;;;;;;;0.71;90.95;99018.81;106846;1310;22357;-55
2024/02/09 08:48:26;;;;;;;25.70;14.60;;;;;;;0.69;91.15;99012.20;106772;1297;22364;-56
2024/02/09 08:50:52;;;;;;;21.80;14.70;;;;;;;0.68;91.05;99011.36;106843;1310;22271;-54
2024/02/09 08:53:17;;;;;;;23.50;14.10;;;;;;;0.69;91.24;99009.33;106863;1317;22243;-57
2024/02/09 08:55:43;;;;;;;22.80;15.30;;;;;;;0.68;91.03;99008.81;106848;1316;22233;-55
2024/02/09 08:58:08;;;;;;;28.50;15.90;;;;;;;0.67;91.01;99002.02;106866;1295;22289;-52
2024/02/09 09:00:34;;;;;;;26.70;16.60;;;;;;;0.66;91.19;98997.46;106985;1313;22230;-52
2024/02/09 09:03:00;;;;;;;27.50;15.10;;;;;;;0.65;91.24;98993.39;104890;1311;22848;-54
2024/02/09 09:05:26;;;;;;;23.90;15.80;;;;;;;0.64;90.98;98984.40;103894;1316;22640;-54
2024/02/09 09:07:52;;;;;;;24.70;15.60;;;;;;;0.66;90.83;98982.88;103860;1316;26684;-55
2024/02/09 09:10:17;;;;;;;27.30;15.90;;;;;;;0.66;91.16;98974.73;103778;1297;23399;-54
2024/02/09 09:12:43;;;;;;;25.40;15.40;;;;;;;0.66;91.65;98965.74;103840;1309;24279;-55
2024/02/09 09:15:09;;;;;;;29.70;17.50;;;;;;;0.67;91.73;98957.09;103922;1295;24235;-52
2024/02/09 09:17:35;;;;;;;26.60;17.70;;;;;;;0.66;91.67;98955.23;103916;1316;22601;-55
2024/02/09 09:20:00;;;;;;;25.80;17.60;;;;;;;0.64;91.26;98958.29;103882;1298;22633;-55
2024/02/09 09:22:26;;;;;;;28.80;18.80;;;;;;;0.65;91.26;98956.25;103891;1310;22555;-54
2024/02/09 09:24:51;;;;;;;25.30;16.90;;;;;;;0.64;91.50;98951.68;103857;1313;22588;-54
2024/02/09 09:27:18;;;;;;;29.10;18.20;;;;;;;0.60;91.82;98951.70;103829;1311;22732;-55
2024/02/09 09:29:44;;;;;;;32.70;19.80;;;;;;;0.56;92.61;98953.90;103854;1298;22576;-54
2024/02/09 09:32:10;;;;;;;32.60;20.10;;;;;;;0.55;93.30;98953.40;103877;1316;22602;-53
2024/02/09 09:34:35;;;;;;;32.80;19.50;;;;;;;0.55;93.62;98947.64;103831;1313;22591;-56
2024/02/09 09:37:03;;;;;;;32.70;20.60;;;;;;;0.56;93.66;98943.39;103857;1311;25454;-56
2024/02/09 09:39:29;;;;;;;34.40;21.70;;;;;;;0.56;93.57;98938.14;103966;1297;22732;-55
2024/02/09 09:41:55;;;;;;;35.30;22.30;;;;;;;0.55;93.86;98938.98;103930;1310;22757;-56
2024/02/09 09:44:24;;;;;;;37.80;24.20;;;;;;;0.54;93.84;98933.05;103910;1313;24158;-54
2024/02/09 09:46:52;;;;;;;62.20;36.00;;;;;;;0.55;93.91;98926.95;106946;1316;22245;-55
2024/02/09 09:49:18;;;;;;;50.10;30.00;;;;;;;0.56;93.91;98925.25;106958;1298;22626;-56
2024/02/09 09:51:50;;;;;;;36.30;23.30;;;;;;;0.57;93.73;98924.91;107014;1316;22268;-57
2024/02/09 09:54:21;;;;;;;54.60;31.20;;;;;;;0.59;93.67;98923.04;106003;1311;25290;-55
2024/02/09 09:56:48;;;;;;;35.40;21.50;;;;;;;0.63;93.89;98921.84;103739;1316;26910;-56
2024/02/09 09:59:14;;;;;;;34.30;21.10;;;;;;;0.61;93.68;98916.25;106939;1295;22553;-55
2024/02/09 10:01:39;;;;;;;30.20;21.00;;;;;;;0.62;93.50;98912.86;104324;1297;25201;-54
2024/02/09 10:04:05;;;;;;;33.80;21.90;;;;;;;0.64;93.38;98914.04;103582;1311;24231;-53
2024/02/09 10:06:31;;;;;;;33.40;22.40;;;;;;;0.65;93.34;98909.63;103827;1316;24000;-55
2024/02/09 10:08:57;;;;;;;32.60;22.40;;;;;;;0.66;93.02;98907.75;103792;1310;23452;-55
2024/02/09 10:11:24;;;;;;;36.90;22.50;;;;;;;0.67;93.30;98908.09;103840;1305;22565;-55
2024/02/09 10:13:53;;;;;;;42.30;25.00;;;;;;;0.69;93.26;98911.82;103641;1316;22609;-55
2024/02/09 10:16:21;;;;;;;37.10;24.40;;;;;;;0.70;93.05;98905.20;103686;1308;23830;-56
2024/02/09 10:18:47;;;;;;;37.00;24.30;;;;;;;0.72;92.86;98900.78;103595;1295;25464;-56
2024/02/09 10:21:13;;;;;;;54.30;28.90;;;;;;;0.73;92.81;98899.42;103588;1296;25586;-55
2024/02/09 10:23:38;;;;;;;53.20;29.00;;;;;;;0.75;92.86;98895.17;103595;1314;22592;-54
2024/02/09 10:26:05;;;;;;;43.10;27.90;;;;;;;0.75;92.73;98890.09;103631;1316;23189;-54
2024/02/09 10:28:31;;;;;;;41.70;25.40;;;;;;;0.77;92.98;98884.14;103618;1308;22768;-55
2024/02/09 10:31:00;;;;;;;42.20;26.60;;;;;;;0.77;92.96;98881.42;103524;1298;22647;-54
2024/02/09 10:33:27;;;;;;;39.50;25.70;;;;;;;0.75;93.39;98879.91;103664;1316;22579;-55
2024/02/09 10:35:55;;;;;;;;;;;;;;;0.75;93.15;98872.62;103658;1316;22562;-57
2024/02/09 10:38:22;;;;;;;40.00;24.70;;;;;;;0.74;93.40;98869.05;103671;1314;22697;-57
2024/02/09 10:40:59;;;;;;;37.20;24.50;;;;;;;0.74;93.15;98860.41;103500;1303;22592;-55
2024/02/09 10:43:28;;;;;;;35.40;25.40;;;;;;;0.74;93.18;98856.00;103714;1316;24150;-55
2024/02/09 10:45:55;;;;;;;41.60;23.40;;;;;;;0.74;93.87;98853.63;104209;1310;22652;-55
2024/02/09 10:48:22;;;;;;;37.40;24.30;;;;;;;0.73;93.67;98852.11;103693;1316;22569;-55
2024/02/09 10:50:53;;;;;;;40.30;24.80;;;;;;;0.74;93.62;98849.05;103773;1305;22850;-54
2024/02/09 10:53:23;;;;;;;39.60;25.30;;;;;;;0.74;93.43;98851.94;103715;1316;22631;-54
2024/02/09 10:56:02;;;;;;;33.40;22.40;;;;;;;0.75;93.73;98850.74;103513;1316;23446;-56
2024/02/09 10:58:35;;;;;;;34.50;22.20;;;;;;;0.76;93.76;98846.16;103627;1308;22588;-54
2024/02/09 11:01:04;;;;;;;36.10;23.60;;;;;;;0.79;93.70;98843.60;103613;1305;22594;-55
2024/02/09 11:03:31;;;;;;;30.80;21.60;;;;;;;0.79;93.74;98841.23;104513;1311;22688;-56
2024/02/09 11:06:00;;;;;;;41.40;23.00;;;;;;;0.81;94.02;98832.05;103956;1313;24009;-60
2024/02/09 11:08:28;;;;;;;35.20;21.30;;;;;;;0.84;93.69;98827.46;103603;1311;22694;-55
2024/02/09 11:11:03;;;;;;;35.50;22.50;;;;;;;0.85;93.61;98823.72;103547;1297;22824;-54
2024/02/09 11:13:30;;;;;;;36.20;22.70;;;;;;;0.88;93.94;98820.83;103696;1313;25440;-55
2024/02/09 11:16:03;;;;;;;32.60;20.80;;;;;;;0.88;93.92;98816.75;104065;1314;22827;-55
2024/02/09 11:18:33;;;;;;;35.20;22.20;;;;;;;0.89;93.95;98810.30;103708;1313;24270;-55
2024/02/09 11:21:00;;;;;;;30.20;20.70;;;;;;;0.90;94.02;98810.46;105849;1295;23458;-55
2024/02/09 11:23:31;;;;;;;31.00;22.00;;;;;;;0.92;94.14;98800.44;103618;1311;24964;-56
2024/02/09 11:25:59;;;;;;;32.40;21.40;;;;;;;0.95;94.50;98805.34;104449;1292;22579;-54
2024/02/09 11:28:25;;;;;;;28.90;20.40;;;;;;;0.96;94.35;98805.34;105685;1310;25281;-56
2024/02/09 11:30:54;;;;;;;31.10;20.80;;;;;;;0.97;94.27;98803.98;103746;1316;22829;-55
2024/02/09 11:33:24;;;;;;;36.30;22.40;;;;;;;0.99;94.18;98799.89;103663;1308;22611;-54
2024/02/09 11:35:51;;;;;;;30.30;21.60;;;;;;;1.00;94.15;98796.49;103710;1313;25434;-56
2024/02/09 11:38:21;;;;;;;32.90;23.50;;;;;;;1.02;94.21;98791.23;103425;1315;22558;-54
2024/02/09 11:40:52;;;;;;;36.20;22.70;;;;;;;1.01;94.25;98786.48;103680;1314;23705;-53
2024/02/09 11:43:17;;;;;;;28.90;20.60;;;;;;;1.02;94.58;98789.18;103487;1297;26473;-57
2024/02/09 11:45:44;;;;;;;34.30;23.20;;;;;;;1.01;94.34;98784.44;103554;1316;25938;-55
2024/02/09 11:48:12;;;;;;;34.60;22.40;;;;;;;0.99;94.25;98783.43;103817;1315;22584;-54
2024/02/09 11:50:39;;;;;;;30.20;20.40;;;;;;;1.00;94.42;98781.56;103827;1303;24397;-54
2024/02/09 11:53:07;;;;;;;27.50;20.30;;;;;;;1.00;94.35;98790.04;106895;1301;22368;-55
2024/02/09 11:55:32;;;;;;;27.50;19.20;;;;;;;1.03;94.29;98794.27;107028;1308;22301;-55
2024/02/09 11:57:59;;;;;;;33.30;19.80;;;;;;;1.03;94.42;98794.60;106988;1308;22378;-55
2024/02/09 12:00:28;;;;;;;27.60;19.70;;;;;;;1.03;94.80;98792.40;106847;1314;22564;-56
2024/02/09 12:02:54;;;;;;;25.30;18.30;;;;;;;1.04;94.72;98792.04;106952;1304;23151;-56
2024/02/09 12:05:19;;;;;;;29.00;20.00;;;;;;;1.06;94.63;98789.64;107000;1316;22283;-55
2024/02/09 12:07:45;;;;;;;26.70;18.60;;;;;;;1.06;94.72;98790.14;104393;1311;23325;-55
2024/02/09 12:10:11;;;;;;;26.40;18.90;;;;;;;1.07;94.83;98787.42;103628;1314;24226;-55
2024/02/09 12:12:36;;;;;;;28.50;19.30;;;;;;;1.07;94.59;98781.48;103562;1297;23961;-56
2024/02/09 12:15:06;;;;;;;26.10;19.20;;;;;;;1.07;94.41;98783.52;103439;1311;22680;-55
2024/02/09 12:17:31;;;;;;;29.70;20.20;;;;;;;1.07;94.43;98781.13;106987;1312;22404;-54
2024/02/09 12:20:08;;;;;;;29.10;20.10;;;;;;;1.08;94.31;98778.42;106974;1310;23147;-56
2024/02/09 12:22:34;;;;;;;26.30;18.40;;;;;;;1.08;94.24;98779.61;106965;1297;22627;-57
2024/02/09 12:25:01;;;;;;;29.10;17.20;;;;;;;1.11;94.36;98783.16;107010;1309;23049;-56
2024/02/09 12:27:27;;;;;;;29.10;20.00;;;;;;;1.13;94.35;98781.43;107010;1310;22461;-57
2024/02/09 12:29:54;;;;;;;29.40;18.70;;;;;;;1.15;94.40;98778.54;107022;1312;22597;-56
2024/02/09 12:32:20;;;;;;;25.60;18.10;;;;;;;1.16;94.52;98772.41;106960;1293;22536;-57
2024/02/09 12:34:47;;;;;;;27.90;18.90;;;;;;;1.16;94.49;98768.52;107031;1313;22444;-56
2024/02/09 12:37:15;;;;;;;26.70;16.20;;;;;;;1.16;94.65;98766.14;106997;1314;23080;-57
2024/02/09 12:39:42;;;;;;;25.30;16.30;;;;;;;1.17;94.30;98762.23;104301;1316;22595;-57
2024/02/09 12:42:09;;;;;;;22.90;16.10;;;;;;;1.19;94.53;98760.86;103850;1316;22586;-53
2024/02/09 12:44:37;;;;;;;28.50;18.30;;;;;;;1.19;94.61;98759.33;103655;1306;22868;-55
2024/02/09 12:47:07;;;;;;;25.80;16.60;;;;;;;1.20;94.61;98753.20;103833;1314;22573;-57
2024/02/09 12:49:36;;;;;;;24.80;16.50;;;;;;;1.21;94.80;98753.20;103802;1310;22774;-55
2024/02/09 12:52:08;;;;;;;25.40;17.20;;;;;;;1.22;94.74;98746.23;103919;1314;22714;-55
2024/02/09 12:54:33;;;;;;;26.30;17.10;;;;;;;1.24;95.06;98744.85;103812;1297;22797;-57
2024/02/09 12:56:59;;;;;;;24.30;15.60;;;;;;;1.25;94.86;98740.95;103846;1315;183960;-56
2024/02/09 12:59:28;;;;;;;22.00;15.20;;;;;;;1.26;94.74;98734.84;103870;1316;22495;-56
2024/02/09 13:01:55;;;;;;;24.60;15.40;;;;;;;1.27;94.84;98729.89;106583;1310;22620;-57
2024/02/09 13:04:21;;;;;;;;;;;;;;;1.29;94.72;98725.63;103743;1309;22720;-56
2024/02/09 13:06:46;;;;;;;18.10;12.80;;;;;;;1.30;94.79;98721.22;103780;1311;22567;-55